sensor_id;sensor_type;location;lat;lon;timestamp;P1;durP1;ratioP1;P2;durP2;ratioP2
8550;SDS011;4313;42.000;21.380;2023-02-22T00:00:33;41.60;;;28.07;;
8550;SDS011;4313;42.000;21.380;2023-02-22T00:03:08;35.37;;;25.13;;
8550;SDS011;4313;42.000;21.380;2023-02-22T00:05:36;38.67;;;26.90;;
8550;SDS011;4313;42.000;21.380;2023-02-22T00:08:06;37.60;;;24.73;;
8550;SDS011;4313;42.000;21.380;2023-02-22T00:10:35;30.37;;;21.57;;
8550;SDS011;4313;42.000;21.380;2023-02-22T00:13:04;30.30;;;21.53;;
8550;SDS011;4313;42.000;21.380;2023-02-22T00:15:33;50.07;;;32.70;;
8550;SDS011;4313;42.000;21.380;2023-02-22T00:18:02;38.13;;;25.03;;
8550;SDS011;4313;42.000;21.380;2023-02-22T00:20:31;46.97;;;32.97;;
8550;SDS011;4313;42.000;21.380;2023-02-22T00:22:58;37.57;;;25.30;;
8550;SDS011;4313;42.000;21.380;2023-02-22T00:25:27;34.87;;;24.43;;
8550;SDS011;4313;42.000;21.380;2023-02-22T00:27:54;35.70;;;23.57;;
8550;SDS011;4313;42.000;21.380;2023-02-22T00:30:21;38.77;;;24.43;;
8550;SDS011;4313;42.000;21.380;2023-02-22T00:32:52;34.37;;;23.03;;
8550;SDS011;4313;42.000;21.380;2023-02-22T00:35:22;40.73;;;25.77;;
8550;SDS011;4313;42.000;21.380;2023-02-22T00:37:51;62.60;;;41.57;;
8550;SDS011;4313;42.000;21.380;2023-02-22T00:40:22;50.07;;;31.43;;
8550;SDS011;4313;42.000;21.380;2023-02-22T00:42:51;38.83;;;24.83;;
8550;SDS011;4313;42.000;21.380;2023-02-22T00:45:20;30.00;;;20.40;;
8550;SDS011;4313;42.000;21.380;2023-02-22T00:47:48;26.47;;;18.53;;
8550;SDS011;4313;42.000;21.380;2023-02-22T00:50:15;26.20;;;18.53;;
8550;SDS011;4313;42.000;21.380;2023-02-22T00:52:43;26.10;;;18.37;;
8550;SDS011;4313;42.000;21.380;2023-02-22T00:55:14;24.60;;;17.77;;
8550;SDS011;4313;42.000;21.380;2023-02-22T00:57:42;32.03;;;20.60;;
8550;SDS011;4313;42.000;21.380;2023-02-22T01:00:14;31.20;;;21.57;;
8550;SDS011;4313;42.000;21.380;2023-02-22T01:02:43;28.83;;;21.30;;
8550;SDS011;4313;42.000;21.380;2023-02-22T01:05:13;27.20;;;18.87;;
8550;SDS011;4313;42.000;21.380;2023-02-22T01:07:40;22.83;;;15.90;;
8550;SDS011;4313;42.000;21.380;2023-02-22T01:10:08;21.97;;;16.40;;
8550;SDS011;4313;42.000;21.380;2023-02-22T01:12:36;21.17;;;16.33;;
8550;SDS011;4313;42.000;21.380;2023-02-22T01:15:04;20.33;;;15.70;;
8550;SDS011;4313;42.000;21.380;2023-02-22T01:17:36;23.07;;;16.87;;
8550;SDS011;4313;42.000;21.380;2023-02-22T01:20:04;25.80;;;18.33;;
8550;SDS011;4313;42.000;21.380;2023-02-22T01:22:37;30.87;;;21.67;;
8550;SDS011;4313;42.000;21.380;2023-02-22T01:25:05;33.33;;;23.47;;
8550;SDS011;4313;42.000;21.380;2023-02-22T01:27:33;26.30;;;17.83;;
8550;SDS011;4313;42.000;21.380;2023-02-22T01:30:00;28.03;;;15.53;;
8550;SDS011;4313;42.000;21.380;2023-02-22T01:32:33;18.73;;;14.00;;
8550;SDS011;4313;42.000;21.380;2023-02-22T01:35:03;20.67;;;13.73;;
8550;SDS011;4313;42.000;21.380;2023-02-22T01:37:32;19.80;;;14.97;;
8550;SDS011;4313;42.000;21.380;2023-02-22T01:40:00;24.40;;;17.53;;
8550;SDS011;4313;42.000;21.380;2023-02-22T01:42:28;22.47;;;16.07;;
8550;SDS011;4313;42.000;21.380;2023-02-22T01:48:14;24.07;;;15.57;;
8550;SDS011;4313;42.000;21.380;2023-02-22T01:50:55;23.70;;;18.07;;
8550;SDS011;4313;42.000;21.380;2023-02-22T01:53:24;21.23;;;14.97;;
8550;SDS011;4313;42.000;21.380;2023-02-22T01:55:52;15.27;;;11.40;;
8550;SDS011;4313;42.000;21.380;2023-02-22T01:58:21;15.50;;;10.80;;
8550;SDS011;4313;42.000;21.380;2023-02-22T02:00:50;19.93;;;12.57;;
8550;SDS011;4313;42.000;21.380;2023-02-22T02:03:19;23.10;;;17.13;;
8550;SDS011;4313;42.000;21.380;2023-02-22T02:05:50;22.13;;;16.87;;
8550;SDS011;4313;42.000;21.380;2023-02-22T02:08:23;37.27;;;24.83;;
8550;SDS011;4313;42.000;21.380;2023-02-22T02:10:56;31.90;;;21.70;;
8550;SDS011;4313;42.000;21.380;2023-02-22T02:13:24;24.03;;;17.73;;
8550;SDS011;4313;42.000;21.380;2023-02-22T02:15:52;23.03;;;16.20;;
8550;SDS011;4313;42.000;21.380;2023-02-22T02:18:20;20.70;;;15.63;;
8550;SDS011;4313;42.000;21.380;2023-02-22T02:20:52;23.00;;;15.37;;
8550;SDS011;4313;42.000;21.380;2023-02-22T02:23:32;21.33;;;15.63;;
8550;SDS011;4313;42.000;21.380;2023-02-22T02:26:24;25.53;;;17.43;;
8550;SDS011;4313;42.000;21.380;2023-02-22T02:29:15;24.53;;;14.17;;
8550;SDS011;4313;42.000;21.380;2023-02-22T02:32:01;17.57;;;13.30;;
8550;SDS011;4313;42.000;21.380;2023-02-22T02:34:52;18.23;;;13.33;;
8550;SDS011;4313;42.000;21.380;2023-02-22T02:37:25;20.57;;;13.63;;
8550;SDS011;4313;42.000;21.380;2023-02-22T02:39:59;19.83;;;13.73;;
8550;SDS011;4313;42.000;21.380;2023-02-22T02:42:37;23.47;;;15.27;;
8550;SDS011;4313;42.000;21.380;2023-02-22T02:45:07;21.07;;;14.57;;
8550;SDS011;4313;42.000;21.380;2023-02-22T02:47:39;19.23;;;13.57;;
8550;SDS011;4313;42.000;21.380;2023-02-22T02:50:09;22.13;;;14.80;;
8550;SDS011;4313;42.000;21.380;2023-02-22T02:52:39;22.10;;;14.60;;
8550;SDS011;4313;42.000;21.380;2023-02-22T02:55:07;22.53;;;14.57;;
8550;SDS011;4313;42.000;21.380;2023-02-22T02:57:35;21.17;;;14.57;;
8550;SDS011;4313;42.000;21.380;2023-02-22T03:00:03;21.20;;;14.53;;
8550;SDS011;4313;42.000;21.380;2023-02-22T03:02:50;22.10;;;14.10;;
8550;SDS011;4313;42.000;21.380;2023-02-22T03:05:34;20.30;;;15.57;;
8550;SDS011;4313;42.000;21.380;2023-02-22T03:08:08;26.67;;;18.40;;
8550;SDS011;4313;42.000;21.380;2023-02-22T03:10:44;26.77;;;17.50;;
8550;SDS011;4313;42.000;21.380;2023-02-22T03:13:18;24.13;;;16.53;;
8550;SDS011;4313;42.000;21.380;2023-02-22T03:16:00;24.33;;;16.50;;
8550;SDS011;4313;42.000;21.380;2023-02-22T03:18:34;27.17;;;17.17;;
8550;SDS011;4313;42.000;21.380;2023-02-22T03:21:09;28.40;;;19.40;;
8550;SDS011;4313;42.000;21.380;2023-02-22T03:23:42;26.23;;;18.60;;
8550;SDS011;4313;42.000;21.380;2023-02-22T03:26:12;29.00;;;20.03;;
8550;SDS011;4313;42.000;21.380;2023-02-22T03:28:44;29.17;;;19.53;;
8550;SDS011;4313;42.000;21.380;2023-02-22T03:31:17;30.17;;;20.90;;
8550;SDS011;4313;42.000;21.380;2023-02-22T03:33:49;28.83;;;19.23;;
8550;SDS011;4313;42.000;21.380;2023-02-22T03:36:19;26.83;;;19.73;;
8550;SDS011;4313;42.000;21.380;2023-02-22T03:38:52;27.83;;;20.23;;
8550;SDS011;4313;42.000;21.380;2023-02-22T03:41:21;27.47;;;17.10;;
8550;SDS011;4313;42.000;21.380;2023-02-22T03:43:52;24.90;;;17.33;;
8550;SDS011;4313;42.000;21.380;2023-02-22T03:46:23;25.77;;;16.77;;
8550;SDS011;4313;42.000;21.380;2023-02-22T03:48:57;24.27;;;16.90;;
8550;SDS011;4313;42.000;21.380;2023-02-22T03:51:30;20.67;;;14.23;;
8550;SDS011;4313;42.000;21.380;2023-02-22T03:53:59;20.53;;;13.50;;
8550;SDS011;4313;42.000;21.380;2023-02-22T03:56:34;23.63;;;15.27;;
8550;SDS011;4313;42.000;21.380;2023-02-22T03:59:03;24.30;;;15.77;;
8550;SDS011;4313;42.000;21.380;2023-02-22T04:01:31;21.80;;;13.43;;
8550;SDS011;4313;42.000;21.380;2023-02-22T04:04:00;17.40;;;12.30;;
8550;SDS011;4313;42.000;21.380;2023-02-22T04:06:28;17.67;;;12.27;;
8550;SDS011;4313;42.000;21.380;2023-02-22T04:08:59;17.80;;;11.97;;
8550;SDS011;4313;42.000;21.380;2023-02-22T04:11:27;18.63;;;12.90;;
8550;SDS011;4313;42.000;21.380;2023-02-22T04:13:54;17.77;;;12.37;;
8550;SDS011;4313;42.000;21.380;2023-02-22T04:16:24;18.33;;;12.37;;
8550;SDS011;4313;42.000;21.380;2023-02-22T04:18:53;23.17;;;14.97;;
8550;SDS011;4313;42.000;21.380;2023-02-22T04:21:21;22.23;;;13.50;;
8550;SDS011;4313;42.000;21.380;2023-02-22T04:23:49;18.83;;;13.30;;
8550;SDS011;4313;42.000;21.380;2023-02-22T04:26:17;16.33;;;11.37;;
8550;SDS011;4313;42.000;21.380;2023-02-22T04:28:50;19.40;;;11.50;;
8550;SDS011;4313;42.000;21.380;2023-02-22T04:31:21;16.27;;;11.23;;
8550;SDS011;4313;42.000;21.380;2023-02-22T04:33:49;15.07;;;10.80;;
8550;SDS011;4313;42.000;21.380;2023-02-22T04:36:20;16.93;;;10.40;;
8550;SDS011;4313;42.000;21.380;2023-02-22T04:38:49;17.70;;;12.00;;
8550;SDS011;4313;42.000;21.380;2023-02-22T04:41:16;14.60;;;10.93;;
8550;SDS011;4313;42.000;21.380;2023-02-22T04:43:43;17.27;;;11.37;;
8550;SDS011;4313;42.000;21.380;2023-02-22T04:46:16;20.53;;;14.20;;
8550;SDS011;4313;42.000;21.380;2023-02-22T04:48:44;23.17;;;15.50;;
8550;SDS011;4313;42.000;21.380;2023-02-22T04:51:13;24.67;;;16.07;;
8550;SDS011;4313;42.000;21.380;2023-02-22T04:53:52;25.33;;;16.90;;
8550;SDS011;4313;42.000;21.380;2023-02-22T04:56:20;22.53;;;14.37;;
8550;SDS011;4313;42.000;21.380;2023-02-22T04:58:47;18.03;;;11.90;;
8550;SDS011;4313;42.000;21.380;2023-02-22T05:01:15;19.13;;;12.30;;
8550;SDS011;4313;42.000;21.380;2023-02-22T05:03:44;20.83;;;13.27;;
8550;SDS011;4313;42.000;21.380;2023-02-22T05:06:11;24.70;;;15.83;;
8550;SDS011;4313;42.000;21.380;2023-02-22T05:08:39;42.33;;;34.67;;
8550;SDS011;4313;42.000;21.380;2023-02-22T05:11:07;29.40;;;22.50;;
8550;SDS011;4313;42.000;21.380;2023-02-22T05:13:35;28.90;;;20.90;;
8550;SDS011;4313;42.000;21.380;2023-02-22T05:16:04;25.07;;;19.07;;
8550;SDS011;4313;42.000;21.380;2023-02-22T05:18:32;31.87;;;21.97;;
8550;SDS011;4313;42.000;21.380;2023-02-22T05:20:59;31.40;;;21.23;;
8550;SDS011;4313;42.000;21.380;2023-02-22T05:23:26;33.67;;;23.30;;
8550;SDS011;4313;42.000;21.380;2023-02-22T05:25:53;29.07;;;20.77;;
8550;SDS011;4313;42.000;21.380;2023-02-22T05:28:22;29.53;;;21.53;;
8550;SDS011;4313;42.000;21.380;2023-02-22T05:30:49;31.13;;;22.47;;
8550;SDS011;4313;42.000;21.380;2023-02-22T05:33:16;29.50;;;21.47;;
8550;SDS011;4313;42.000;21.380;2023-02-22T05:35:43;43.30;;;27.07;;
8550;SDS011;4313;42.000;21.380;2023-02-22T05:38:11;35.53;;;26.03;;
8550;SDS011;4313;42.000;21.380;2023-02-22T05:40:39;39.07;;;27.57;;
8550;SDS011;4313;42.000;21.380;2023-02-22T05:43:07;35.40;;;25.43;;
8550;SDS011;4313;42.000;21.380;2023-02-22T05:45:36;33.87;;;23.87;;
8550;SDS011;4313;42.000;21.380;2023-02-22T05:48:03;35.77;;;23.90;;
8550;SDS011;4313;42.000;21.380;2023-02-22T05:50:31;36.97;;;24.07;;
8550;SDS011;4313;42.000;21.380;2023-02-22T05:52:58;41.97;;;25.97;;
8550;SDS011;4313;42.000;21.380;2023-02-22T05:55:26;39.17;;;25.37;;
8550;SDS011;4313;42.000;21.380;2023-02-22T05:57:53;38.10;;;25.27;;
8550;SDS011;4313;42.000;21.380;2023-02-22T06:00:21;40.23;;;25.17;;
8550;SDS011;4313;42.000;21.380;2023-02-22T06:02:54;41.63;;;28.07;;
8550;SDS011;4313;42.000;21.380;2023-02-22T06:05:22;44.80;;;31.60;;
8550;SDS011;4313;42.000;21.380;2023-02-22T06:07:49;44.37;;;28.43;;
8550;SDS011;4313;42.000;21.380;2023-02-22T06:10:16;36.03;;;24.97;;
8550;SDS011;4313;42.000;21.380;2023-02-22T06:12:44;37.67;;;24.50;;
8550;SDS011;4313;42.000;21.380;2023-02-22T06:15:11;37.53;;;23.50;;
8550;SDS011;4313;42.000;21.380;2023-02-22T06:17:40;32.57;;;22.80;;
8550;SDS011;4313;42.000;21.380;2023-02-22T06:20:09;30.27;;;22.40;;
8550;SDS011;4313;42.000;21.380;2023-02-22T06:22:37;33.77;;;25.10;;
8550;SDS011;4313;42.000;21.380;2023-02-22T06:25:06;33.33;;;24.13;;
8550;SDS011;4313;42.000;21.380;2023-02-22T06:27:34;31.17;;;24.33;;
8550;SDS011;4313;42.000;21.380;2023-02-22T06:30:01;28.37;;;22.57;;
8550;SDS011;4313;42.000;21.380;2023-02-22T06:32:29;31.50;;;23.07;;
8550;SDS011;4313;42.000;21.380;2023-02-22T06:34:57;31.73;;;22.50;;
8550;SDS011;4313;42.000;21.380;2023-02-22T06:37:25;33.67;;;23.73;;
8550;SDS011;4313;42.000;21.380;2023-02-22T06:39:52;33.28;;;24.15;;
8550;SDS011;4313;42.000;21.380;2023-02-22T06:42:19;30.35;;;22.38;;
8550;SDS011;4313;42.000;21.380;2023-02-22T06:44:47;29.95;;;21.48;;
8550;SDS011;4313;42.000;21.380;2023-02-22T06:47:16;33.25;;;22.80;;
8550;SDS011;4313;42.000;21.380;2023-02-22T06:49:43;31.42;;;22.50;;
8550;SDS011;4313;42.000;21.380;2023-02-22T06:52:10;29.67;;;22.95;;
8550;SDS011;4313;42.000;21.380;2023-02-22T06:54:38;30.15;;;22.58;;
8550;SDS011;4313;42.000;21.380;2023-02-22T06:57:06;26.55;;;22.23;;
8550;SDS011;4313;42.000;21.380;2023-02-22T06:59:34;27.05;;;20.85;;
8550;SDS011;4313;42.000;21.380;2023-02-22T07:02:01;25.80;;;21.30;;
8550;SDS011;4313;42.000;21.380;2023-02-22T07:04:28;29.05;;;21.65;;
8550;SDS011;4313;42.000;21.380;2023-02-22T07:06:55;27.42;;;21.58;;
8550;SDS011;4313;42.000;21.380;2023-02-22T07:09:22;26.60;;;21.80;;
8550;SDS011;4313;42.000;21.380;2023-02-22T07:11:53;26.55;;;21.38;;
8550;SDS011;4313;42.000;21.380;2023-02-22T07:14:25;28.73;;;21.48;;
8550;SDS011;4313;42.000;21.380;2023-02-22T07:16:53;27.15;;;23.42;;
8550;SDS011;4313;42.000;21.380;2023-02-22T07:19:22;30.52;;;24.50;;
8550;SDS011;4313;42.000;21.380;2023-02-22T07:21:50;35.75;;;27.67;;
8550;SDS011;4313;42.000;21.380;2023-02-22T07:24:30;34.83;;;27.85;;
8550;SDS011;4313;42.000;21.380;2023-02-22T07:27:07;37.70;;;31.58;;
8550;SDS011;4313;42.000;21.380;2023-02-22T07:29:39;40.67;;;32.22;;
8550;SDS011;4313;42.000;21.380;2023-02-22T07:32:08;45.63;;;34.22;;
8550;SDS011;4313;42.000;21.380;2023-02-22T07:34:35;48.88;;;35.35;;
8550;SDS011;4313;42.000;21.380;2023-02-22T07:37:02;47.20;;;34.80;;
8550;SDS011;4313;42.000;21.380;2023-02-22T07:39:30;39.88;;;33.25;;
8550;SDS011;4313;42.000;21.380;2023-02-22T07:41:58;43.55;;;35.47;;
8550;SDS011;4313;42.000;21.380;2023-02-22T07:44:29;48.00;;;34.58;;
8550;SDS011;4313;42.000;21.380;2023-02-22T07:47:00;39.50;;;32.17;;
8550;SDS011;4313;42.000;21.380;2023-02-22T07:49:30;47.45;;;33.97;;
8550;SDS011;4313;42.000;21.380;2023-02-22T07:51:57;50.65;;;33.92;;
8550;SDS011;4313;42.000;21.380;2023-02-22T07:54:24;50.72;;;34.42;;
8550;SDS011;4313;42.000;21.380;2023-02-22T07:56:51;55.83;;;36.03;;
8550;SDS011;4313;42.000;21.380;2023-02-22T07:59:19;49.72;;;33.55;;
8550;SDS011;4313;42.000;21.380;2023-02-22T08:01:49;53.25;;;35.22;;
8550;SDS011;4313;42.000;21.380;2023-02-22T08:04:16;45.00;;;31.83;;
8550;SDS011;4313;42.000;21.380;2023-02-22T08:06:44;42.83;;;30.35;;
8550;SDS011;4313;42.000;21.380;2023-02-22T08:09:11;47.92;;;29.58;;
8550;SDS011;4313;42.000;21.380;2023-02-22T08:11:39;47.47;;;32.17;;
8550;SDS011;4313;42.000;21.380;2023-02-22T08:14:06;48.00;;;31.85;;
8550;SDS011;4313;42.000;21.380;2023-02-22T08:16:33;47.80;;;33.45;;
8550;SDS011;4313;42.000;21.380;2023-02-22T08:19:02;41.58;;;30.23;;
8550;SDS011;4313;42.000;21.380;2023-02-22T08:21:29;46.00;;;30.45;;
8550;SDS011;4313;42.000;21.380;2023-02-22T08:23:56;43.92;;;29.90;;
8550;SDS011;4313;42.000;21.380;2023-02-22T08:26:23;39.28;;;27.00;;
8550;SDS011;4313;42.000;21.380;2023-02-22T08:28:51;40.30;;;27.27;;
8550;SDS011;4313;42.000;21.380;2023-02-22T08:31:18;42.88;;;28.15;;
8550;SDS011;4313;42.000;21.380;2023-02-22T08:33:46;46.13;;;29.85;;
8550;SDS011;4313;42.000;21.380;2023-02-22T08:36:15;41.70;;;30.20;;
8550;SDS011;4313;42.000;21.380;2023-02-22T08:38:43;41.70;;;29.55;;
8550;SDS011;4313;42.000;21.380;2023-02-22T08:41:11;40.05;;;30.50;;
8550;SDS011;4313;42.000;21.380;2023-02-22T08:43:38;35.80;;;26.23;;
8550;SDS011;4313;42.000;21.380;2023-02-22T08:46:05;36.67;;;27.90;;
8550;SDS011;4313;42.000;21.380;2023-02-22T08:48:32;39.00;;;28.50;;
8550;SDS011;4313;42.000;21.380;2023-02-22T08:50:59;35.97;;;26.75;;
8550;SDS011;4313;42.000;21.380;2023-02-22T08:53:28;34.85;;;27.27;;
8550;SDS011;4313;42.000;21.380;2023-02-22T08:55:57;38.83;;;26.80;;
8550;SDS011;4313;42.000;21.380;2023-02-22T08:58:24;32.72;;;26.70;;
8550;SDS011;4313;42.000;21.380;2023-02-22T09:00:51;36.05;;;27.45;;
8550;SDS011;4313;42.000;21.380;2023-02-22T09:03:18;35.83;;;27.25;;
8550;SDS011;4313;42.000;21.380;2023-02-22T09:05:46;34.50;;;23.40;;
8550;SDS011;4313;42.000;21.380;2023-02-22T09:08:14;40.88;;;26.00;;
8550;SDS011;4313;42.000;21.380;2023-02-22T09:10:44;35.00;;;26.73;;
8550;SDS011;4313;42.000;21.380;2023-02-22T09:13:11;34.55;;;25.98;;
8550;SDS011;4313;42.000;21.380;2023-02-22T09:15:39;40.00;;;30.38;;
8550;SDS011;4313;42.000;21.380;2023-02-22T09:18:07;46.00;;;31.45;;
8550;SDS011;4313;42.000;21.380;2023-02-22T09:20:36;39.38;;;30.30;;
8550;SDS011;4313;42.000;21.380;2023-02-22T09:23:04;40.25;;;29.45;;
8550;SDS011;4313;42.000;21.380;2023-02-22T09:25:34;45.53;;;30.02;;
8550;SDS011;4313;42.000;21.380;2023-02-22T09:28:05;42.47;;;30.00;;
8550;SDS011;4313;42.000;21.380;2023-02-22T09:30:33;43.53;;;31.30;;
8550;SDS011;4313;42.000;21.380;2023-02-22T09:33:01;41.92;;;32.83;;
8550;SDS011;4313;42.000;21.380;2023-02-22T09:35:29;41.92;;;34.22;;
8550;SDS011;4313;42.000;21.380;2023-02-22T09:38:00;43.55;;;32.72;;
8550;SDS011;4313;42.000;21.380;2023-02-22T09:40:30;43.92;;;34.58;;
8550;SDS011;4313;42.000;21.380;2023-02-22T09:46:09;39.67;;;31.83;;
8550;SDS011;4313;42.000;21.380;2023-02-22T09:48:49;36.58;;;29.05;;
8550;SDS011;4313;42.000;21.380;2023-02-22T09:51:26;36.33;;;29.55;;
8550;SDS011;4313;42.000;21.380;2023-02-22T09:54:00;34.83;;;28.73;;
8550;SDS011;4313;42.000;21.380;2023-02-22T09:56:30;36.60;;;29.50;;
8550;SDS011;4313;42.000;21.380;2023-02-22T09:59:01;37.63;;;28.27;;
8550;SDS011;4313;42.000;21.380;2023-02-22T10:01:33;30.40;;;24.98;;
8550;SDS011;4313;42.000;21.380;2023-02-22T10:04:07;32.05;;;25.30;;
8550;SDS011;4313;42.000;21.380;2023-02-22T10:06:43;34.08;;;26.95;;
8550;SDS011;4313;42.000;21.380;2023-02-22T10:09:22;27.70;;;23.50;;
8550;SDS011;4313;42.000;21.380;2023-02-22T10:11:54;29.52;;;23.30;;
8550;SDS011;4313;42.000;21.380;2023-02-22T10:14:33;31.23;;;25.83;;
8550;SDS011;4313;42.000;21.380;2023-02-22T10:17:10;27.25;;;24.08;;
8550;SDS011;4313;42.000;21.380;2023-02-22T10:19:46;27.52;;;21.98;;
8550;SDS011;4313;42.000;21.380;2023-02-22T10:22:27;24.95;;;20.15;;
8550;SDS011;4313;42.000;21.380;2023-02-22T10:25:11;26.45;;;21.02;;
8550;SDS011;4313;42.000;21.380;2023-02-22T10:27:44;27.20;;;17.63;;
8550;SDS011;4313;42.000;21.380;2023-02-22T10:30:18;24.95;;;19.08;;
8550;SDS011;4313;42.000;21.380;2023-02-22T10:32:47;21.15;;;18.20;;
8550;SDS011;4313;42.000;21.380;2023-02-22T10:35:20;18.83;;;15.68;;
8550;SDS011;4313;42.000;21.380;2023-02-22T10:37:49;19.45;;;16.25;;
8550;SDS011;4313;42.000;21.380;2023-02-22T10:40:20;17.70;;;13.52;;
8550;SDS011;4313;42.000;21.380;2023-02-22T10:42:57;17.10;;;13.90;;
8550;SDS011;4313;42.000;21.380;2023-02-22T10:45:29;17.80;;;13.63;;
8550;SDS011;4313;42.000;21.380;2023-02-22T10:47:58;16.33;;;13.80;;
8550;SDS011;4313;42.000;21.380;2023-02-22T10:50:27;14.25;;;11.82;;
8550;SDS011;4313;42.000;21.380;2023-02-22T10:52:56;15.38;;;11.90;;
8550;SDS011;4313;42.000;21.380;2023-02-22T10:55:26;13.27;;;11.30;;
8550;SDS011;4313;42.000;21.380;2023-02-22T10:57:58;13.48;;;11.57;;
8550;SDS011;4313;42.000;21.380;2023-02-22T11:00:29;12.48;;;10.63;;
8550;SDS011;4313;42.000;21.380;2023-02-22T11:03:01;11.63;;;9.50;;
8550;SDS011;4313;42.000;21.380;2023-02-22T11:05:35;12.82;;;9.98;;
8550;SDS011;4313;42.000;21.380;2023-02-22T11:08:22;13.10;;;9.90;;
8550;SDS011;4313;42.000;21.380;2023-02-22T11:10:53;10.52;;;7.90;;
8550;SDS011;4313;42.000;21.380;2023-02-22T11:13:26;9.15;;;7.32;;
8550;SDS011;4313;42.000;21.380;2023-02-22T11:15:57;8.60;;;6.63;;
8550;SDS011;4313;42.000;21.380;2023-02-22T11:18:29;11.88;;;8.52;;
8550;SDS011;4313;42.000;21.380;2023-02-22T11:21:04;9.98;;;7.20;;
8550;SDS011;4313;42.000;21.380;2023-02-22T11:23:42;14.30;;;8.02;;
8550;SDS011;4313;42.000;21.380;2023-02-22T11:26:13;10.90;;;7.88;;
8550;SDS011;4313;42.000;21.380;2023-02-22T11:28:45;10.73;;;7.95;;
8550;SDS011;4313;42.000;21.380;2023-02-22T11:31:22;12.20;;;7.90;;
8550;SDS011;4313;42.000;21.380;2023-02-22T11:33:52;10.50;;;7.53;;
8550;SDS011;4313;42.000;21.380;2023-02-22T11:36:28;10.27;;;7.97;;
8550;SDS011;4313;42.000;21.380;2023-02-22T11:38:59;10.93;;;8.00;;
8550;SDS011;4313;42.000;21.380;2023-02-22T11:41:33;11.73;;;7.97;;
8550;SDS011;4313;42.000;21.380;2023-02-22T11:44:19;8.32;;;6.38;;
8550;SDS011;4313;42.000;21.380;2023-02-22T11:46:56;9.18;;;6.90;;
8550;SDS011;4313;42.000;21.380;2023-02-22T11:49:30;7.78;;;6.07;;
8550;SDS011;4313;42.000;21.380;2023-02-22T11:52:03;8.45;;;6.43;;
8550;SDS011;4313;42.000;21.380;2023-02-22T11:54:46;8.18;;;6.10;;
8550;SDS011;4313;42.000;21.380;2023-02-22T11:57:25;7.80;;;6.30;;
8550;SDS011;4313;42.000;21.380;2023-02-22T12:00:02;6.80;;;5.40;;
8550;SDS011;4313;42.000;21.380;2023-02-22T12:02:52;8.05;;;5.88;;
8550;SDS011;4313;42.000;21.380;2023-02-22T12:05:38;8.23;;;6.00;;
8550;SDS011;4313;42.000;21.380;2023-02-22T12:08:24;7.32;;;5.53;;
8550;SDS011;4313;42.000;21.380;2023-02-22T12:11:03;6.22;;;4.88;;
8550;SDS011;4313;42.000;21.380;2023-02-22T12:13:44;5.30;;;4.25;;
8550;SDS011;4313;42.000;21.380;2023-02-22T12:16:20;6.55;;;5.10;;
8550;SDS011;4313;42.000;21.380;2023-02-22T12:18:58;6.90;;;4.85;;
8550;SDS011;4313;42.000;21.380;2023-02-22T12:21:38;5.63;;;4.70;;
8550;SDS011;4313;42.000;21.380;2023-02-22T12:24:26;7.03;;;4.63;;
8550;SDS011;4313;42.000;21.380;2023-02-22T12:26:59;6.88;;;4.38;;
8550;SDS011;4313;42.000;21.380;2023-02-22T12:29:29;5.63;;;4.78;;
8550;SDS011;4313;42.000;21.380;2023-02-22T12:32:03;6.63;;;5.15;;
8550;SDS011;4313;42.000;21.380;2023-02-22T12:34:35;7.15;;;4.30;;
8550;SDS011;4313;42.000;21.380;2023-02-22T12:37:09;6.68;;;4.95;;
8550;SDS011;4313;42.000;21.380;2023-02-22T12:39:41;6.43;;;4.43;;
8550;SDS011;4313;42.000;21.380;2023-02-22T12:42:16;4.68;;;3.92;;
8550;SDS011;4313;42.000;21.380;2023-02-22T12:44:52;6.85;;;4.20;;
8550;SDS011;4313;42.000;21.380;2023-02-22T12:47:22;3.95;;;3.17;;
8550;SDS011;4313;42.000;21.380;2023-02-22T12:49:56;4.25;;;3.60;;
8550;SDS011;4313;42.000;21.380;2023-02-22T12:52:31;7.55;;;4.35;;
8550;SDS011;4313;42.000;21.380;2023-02-22T12:55:03;3.42;;;3.10;;
8550;SDS011;4313;42.000;21.380;2023-02-22T12:57:36;3.33;;;3.03;;
8550;SDS011;4313;42.000;21.380;2023-02-22T13:00:10;8.40;;;5.28;;
8550;SDS011;4313;42.000;21.380;2023-02-22T13:02:42;6.50;;;4.90;;
8550;SDS011;4313;42.000;21.380;2023-02-22T13:05:14;7.05;;;4.60;;
8550;SDS011;4313;42.000;21.380;2023-02-22T13:07:44;5.53;;;4.18;;
8550;SDS011;4313;42.000;21.380;2023-02-22T13:10:19;5.80;;;4.20;;
8550;SDS011;4313;42.000;21.380;2023-02-22T13:13:06;5.07;;;3.80;;
8550;SDS011;4313;42.000;21.380;2023-02-22T13:15:43;4.47;;;3.65;;
8550;SDS011;4313;42.000;21.380;2023-02-22T13:18:18;5.35;;;3.58;;
8550;SDS011;4313;42.000;21.380;2023-02-22T13:20:53;5.65;;;3.13;;
8550;SDS011;4313;42.000;21.380;2023-02-22T13:23:29;5.18;;;3.30;;
8550;SDS011;4313;42.000;21.380;2023-02-22T13:26:03;5.18;;;3.95;;
8550;SDS011;4313;42.000;21.380;2023-02-22T13:28:35;4.53;;;3.50;;
8550;SDS011;4313;42.000;21.380;2023-02-22T13:34:07;4.10;;;3.47;;
8550;SDS011;4313;42.000;21.380;2023-02-22T13:37:01;4.40;;;3.50;;
8550;SDS011;4313;42.000;21.380;2023-02-22T13:39:43;3.53;;;3.22;;
8550;SDS011;4313;42.000;21.380;2023-02-22T13:42:34;5.45;;;3.85;;
8550;SDS011;4313;42.000;21.380;2023-02-22T13:45:25;6.60;;;3.80;;
8550;SDS011;4313;42.000;21.380;2023-02-22T13:48:11;7.03;;;3.72;;
8550;SDS011;4313;42.000;21.380;2023-02-22T13:50:51;7.07;;;3.70;;
8550;SDS011;4313;42.000;21.380;2023-02-22T13:53:29;4.97;;;3.50;;
8550;SDS011;4313;42.000;21.380;2023-02-22T13:56:00;7.13;;;4.20;;
8550;SDS011;4313;42.000;21.380;2023-02-22T13:58:27;7.72;;;4.30;;
8550;SDS011;4313;42.000;21.380;2023-02-22T14:00:55;7.85;;;4.70;;
8550;SDS011;4313;42.000;21.380;2023-02-22T14:03:31;7.70;;;4.90;;
8550;SDS011;4313;42.000;21.380;2023-02-22T14:06:05;8.68;;;5.25;;
8550;SDS011;4313;42.000;21.380;2023-02-22T14:08:41;6.85;;;4.72;;
8550;SDS011;4313;42.000;21.380;2023-02-22T14:14:21;6.53;;;4.47;;
8550;SDS011;4313;42.000;21.380;2023-02-22T14:19:41;7.70;;;5.03;;
8550;SDS011;4313;42.000;21.380;2023-02-22T14:22:17;6.53;;;4.47;;
8550;SDS011;4313;42.000;21.380;2023-02-22T14:24:53;7.72;;;5.55;;
8550;SDS011;4313;42.000;21.380;2023-02-22T14:27:20;8.05;;;5.85;;
8550;SDS011;4313;42.000;21.380;2023-02-22T14:29:50;5.75;;;5.07;;
8550;SDS011;4313;42.000;21.380;2023-02-22T14:32:19;8.27;;;5.78;;
8550;SDS011;4313;42.000;21.380;2023-02-22T14:34:47;7.93;;;5.35;;
8550;SDS011;4313;42.000;21.380;2023-02-22T14:37:17;6.30;;;4.80;;
8550;SDS011;4313;42.000;21.380;2023-02-22T14:39:49;7.00;;;5.70;;
8550;SDS011;4313;42.000;21.380;2023-02-22T14:42:20;9.43;;;5.90;;
8550;SDS011;4313;42.000;21.380;2023-02-22T14:44:51;8.18;;;5.70;;
8550;SDS011;4313;42.000;21.380;2023-02-22T14:47:22;7.07;;;5.15;;
8550;SDS011;4313;42.000;21.380;2023-02-22T14:49:54;8.85;;;5.72;;
8550;SDS011;4313;42.000;21.380;2023-02-22T14:52:26;8.48;;;5.85;;
8550;SDS011;4313;42.000;21.380;2023-02-22T14:54:57;9.90;;;5.22;;
8550;SDS011;4313;42.000;21.380;2023-02-22T14:57:37;10.48;;;7.10;;
8550;SDS011;4313;42.000;21.380;2023-02-22T15:00:13;12.50;;;8.07;;
8550;SDS011;4313;42.000;21.380;2023-02-22T15:02:55;10.73;;;6.32;;
8550;SDS011;4313;42.000;21.380;2023-02-22T15:05:24;10.30;;;6.72;;
8550;SDS011;4313;42.000;21.380;2023-02-22T15:07:56;8.07;;;5.10;;
8550;SDS011;4313;42.000;21.380;2023-02-22T15:10:26;8.43;;;5.55;;
8550;SDS011;4313;42.000;21.380;2023-02-22T15:12:58;9.90;;;6.68;;
8550;SDS011;4313;42.000;21.380;2023-02-22T15:15:36;10.60;;;7.07;;
8550;SDS011;4313;42.000;21.380;2023-02-22T15:18:09;10.60;;;6.95;;
8550;SDS011;4313;42.000;21.380;2023-02-22T15:20:43;9.05;;;6.20;;